createdAt,value
2022-08-22T00:01:55.597Z,46.83
2022-08-22T00:03:07.261Z,45.32
2022-08-22T00:04:40.273Z,45.17
2022-08-22T00:07:24.971Z,44.51
2022-08-22T00:10:09.646Z,45.65
2022-08-22T00:12:54.540Z,46.93
2022-08-22T00:15:43.368Z,48.41
2022-08-22T00:18:28.835Z,45.56
2022-08-22T00:21:13.695Z,45.92
2022-08-22T00:23:58.402Z,46.40
2022-08-22T00:26:45.869Z,45.70
2022-08-22T00:29:31.022Z,46.54
2022-08-22T00:32:17.694Z,46.51
2022-08-22T00:35:02.531Z,46.39
2022-08-22T00:37:47.435Z,46.25
2022-08-22T00:40:32.215Z,47.47
2022-08-22T00:43:17.054Z,48.89
2022-08-22T00:46:01.856Z,48.29
2022-08-22T00:48:46.753Z,48.72
2022-08-22T00:51:31.491Z,49.20
2022-08-22T00:54:17.657Z,50.12
2022-08-22T00:57:02.961Z,49.13
2022-08-22T00:59:47.715Z,49.48
2022-08-22T01:02:32.421Z,50.28
2022-08-22T01:05:17.221Z,50.69
2022-08-22T01:08:01.984Z,49.70
2022-08-22T01:10:46.860Z,50.87
2022-08-22T01:13:32.078Z,50.82
2022-08-22T01:16:16.787Z,50.39
2022-08-22T01:19:01.517Z,50.21
2022-08-22T01:21:46.213Z,48.00
2022-08-22T01:24:30.898Z,48.02
2022-08-22T01:27:18.898Z,48.35
2022-08-22T01:30:05.074Z,48.85
2022-08-22T01:32:49.795Z,48.76
2022-08-22T01:35:41.568Z,49.47
2022-08-22T01:38:26.290Z,51.01
2022-08-22T01:41:12.032Z,50.41
2022-08-22T01:43:59.972Z,49.65
2022-08-22T01:46:45.588Z,48.15
2022-08-22T01:49:30.374Z,47.95
2022-08-22T01:52:15.080Z,48.43
2022-08-22T01:55:04.378Z,48.60
2022-08-22T01:57:49.173Z,49.12
2022-08-22T02:00:35.284Z,49.89
2022-08-22T02:03:20.785Z,50.08
2022-08-22T02:06:05.561Z,50.34
2022-08-22T02:08:50.273Z,51.28
2022-08-22T02:11:35.072Z,52.16
2022-08-22T02:14:19.958Z,53.67
2022-08-22T02:17:04.923Z,53.65
2022-08-22T02:19:49.725Z,53.87
2022-08-22T02:22:34.426Z,54.48
2022-08-22T02:25:19.260Z,54.97
2022-08-22T02:28:04.179Z,55.21
2022-08-22T02:30:48.865Z,54.92
2022-08-22T02:33:34.422Z,54.08
2022-08-22T02:36:19.245Z,52.81
2022-08-22T02:39:04.046Z,52.96
2022-08-22T02:41:48.894Z,53.63
2022-08-22T02:44:33.490Z,52.96
2022-08-22T02:47:18.352Z,52.47
2022-08-22T02:50:03.198Z,52.27
2022-08-22T02:52:49.390Z,51.02
2022-08-22T02:55:34.234Z,50.30
2022-08-22T02:58:18.898Z,49.91
2022-08-22T03:01:03.689Z,49.99
2022-08-22T03:03:48.441Z,49.47
2022-08-22T03:06:33.173Z,49.47
2022-08-22T03:09:17.880Z,49.52
2022-08-22T03:12:02.689Z,50.51
2022-08-22T03:14:47.373Z,51.07
2022-08-22T03:17:32.205Z,50.74
2022-08-22T03:20:16.994Z,49.60
2022-08-22T03:23:01.878Z,50.21
2022-08-22T03:25:46.634Z,51.05
2022-08-22T03:28:31.306Z,51.44
2022-08-22T03:31:16.019Z,50.89
2022-08-22T03:34:00.658Z,51.49
2022-08-22T03:36:45.484Z,51.13
2022-08-22T03:39:31.600Z,52.19
2022-08-22T03:42:16.442Z,53.75
2022-08-22T03:45:01.209Z,52.60
2022-08-22T03:47:45.902Z,51.45
2022-08-22T03:50:30.556Z,51.63
2022-08-22T03:53:19.193Z,52.19
2022-08-22T03:56:04.503Z,53.08
2022-08-22T03:58:49.372Z,54.08
2022-08-22T04:01:34.314Z,54.84
2022-08-22T04:04:19.058Z,54.32
2022-08-22T04:07:05.425Z,54.64
2022-08-22T04:09:56.101Z,55.67
2022-08-22T04:12:41.959Z,55.48
2022-08-22T04:15:26.737Z,55.94
2022-08-22T04:18:11.556Z,53.86
2022-08-22T04:20:58.272Z,53.44
2022-08-22T04:23:42.961Z,51.93
2022-08-22T04:26:27.821Z,49.93
2022-08-22T04:29:12.558Z,49.33
2022-08-22T04:31:57.417Z,51.58
2022-08-22T04:34:42.161Z,51.36
2022-08-22T04:37:26.988Z,50.77
2022-08-22T04:40:11.767Z,52.03
2022-08-22T04:42:56.899Z,51.59
2022-08-22T04:45:41.603Z,51.57
2022-08-22T04:48:26.285Z,49.83
2022-08-22T04:51:11.169Z,49.53
2022-08-22T04:53:56.045Z,50.16
2022-08-22T04:56:40.847Z,50.31
2022-08-22T04:59:25.613Z,51.66
2022-08-22T05:02:12.486Z,51.91
2022-08-22T05:04:57.206Z,52.62
2022-08-22T05:07:41.953Z,54.68
2022-08-22T05:10:26.740Z,54.63
2022-08-22T05:13:11.581Z,53.94
2022-08-22T05:15:56.434Z,54.91
2022-08-22T05:18:41.167Z,53.59
2022-08-22T05:21:27.015Z,52.85
2022-08-22T05:24:12.229Z,52.74
2022-08-22T05:26:57.133Z,53.33
2022-08-22T05:29:41.839Z,53.48
2022-08-22T05:32:26.561Z,53.15
2022-08-22T05:35:11.313Z,53.43
2022-08-22T05:37:56.074Z,54.25
2022-08-22T05:40:40.710Z,54.56
2022-08-22T05:43:25.554Z,54.40
2022-08-22T05:46:10.351Z,53.58
2022-08-22T05:48:55.014Z,52.72
2022-08-22T05:51:39.713Z,52.68
2022-08-22T05:54:34.681Z,53.43
2022-08-22T05:57:19.596Z,53.05
2022-08-22T06:00:04.273Z,53.14
2022-08-22T06:02:49.118Z,53.21
2022-08-22T06:05:33.903Z,50.77
2022-08-22T06:08:18.809Z,41.79
2022-08-22T06:11:03.397Z,39.96
2022-08-22T06:13:48.244Z,44.04
2022-08-22T06:16:37.243Z,42.96
2022-08-22T06:19:22.049Z,44.36
2022-08-22T06:22:06.830Z,45.36
2022-08-22T06:24:52.917Z,46.39
2022-08-22T06:27:37.844Z,46.54
2022-08-22T06:30:22.517Z,47.73
2022-08-22T06:33:07.397Z,47.11
2022-08-22T06:35:57.424Z,47.25
2022-08-22T06:38:42.202Z,46.51
2022-08-22T06:41:26.909Z,46.92
2022-08-22T06:44:11.494Z,47.91
2022-08-22T06:46:56.345Z,46.98
2022-08-22T06:49:41.170Z,46.42
2022-08-22T06:52:25.998Z,46.60
2022-08-22T06:55:10.711Z,46.67
2022-08-22T06:57:55.457Z,46.03
2022-08-22T07:00:40.797Z,45.24
2022-08-22T07:03:25.661Z,45.49
2022-08-22T07:06:11.415Z,44.93
2022-08-22T07:08:56.127Z,44.80
2022-08-22T07:11:40.910Z,44.64
2022-08-22T07:14:25.692Z,36.86
2022-08-22T07:17:10.392Z,31.27
2022-08-22T07:19:55.261Z,27.61
2022-08-22T07:22:39.899Z,25.91
2022-08-22T07:25:24.783Z,25.97
2022-08-22T07:28:09.459Z,25.71
2022-08-22T07:31:00.593Z,26.21
2022-08-22T07:33:45.850Z,27.20
2022-08-22T07:36:31.971Z,29.55
2022-08-22T07:39:16.900Z,34.41
2022-08-22T07:42:04.882Z,37.39
2022-08-22T07:44:49.661Z,38.91
2022-08-22T07:47:34.508Z,39.21
2022-08-22T07:50:19.428Z,40.78
2022-08-22T07:53:04.592Z,41.57
2022-08-22T07:55:50.065Z,40.84
2022-08-22T07:58:34.880Z,41.52
2022-08-22T08:01:19.894Z,40.83
2022-08-22T08:04:05.026Z,42.70
2022-08-22T08:06:49.705Z,42.97
2022-08-22T08:09:34.522Z,44.02
2022-08-22T08:12:19.240Z,44.08
2022-08-22T08:15:03.942Z,44.92
2022-08-22T08:17:48.606Z,44.27
2022-08-22T08:20:33.171Z,45.08
2022-08-22T08:23:17.852Z,44.49
2022-08-22T08:26:08.144Z,44.23
2022-08-22T08:28:52.859Z,44.43
2022-08-22T08:31:37.661Z,44.83
2022-08-22T08:34:28.085Z,45.30
2022-08-22T08:37:12.937Z,44.64
2022-08-22T08:39:58.206Z,43.92
2022-08-22T08:42:43.518Z,42.70
2022-08-22T08:45:28.994Z,42.51
2022-08-22T08:48:14.032Z,42.10
2022-08-22T08:50:59.270Z,42.17
2022-08-22T08:53:46.960Z,41.53
2022-08-22T08:56:31.942Z,41.80
2022-08-22T08:59:16.540Z,41.36
2022-08-22T09:02:01.898Z,41.64
2022-08-22T09:04:46.533Z,42.51
2022-08-22T09:07:31.464Z,42.72
2022-08-22T09:10:16.587Z,42.04
2022-08-22T09:13:12.314Z,41.71
2022-08-22T09:16:04.734Z,42.05
2022-08-22T09:18:50.452Z,41.93
2022-08-22T09:21:35.207Z,42.31
2022-08-22T09:24:19.872Z,41.38
2022-08-22T09:27:08.467Z,42.11
2022-08-22T09:32:58.888Z,40.48
2022-08-22T09:35:43.647Z,40.73
2022-08-22T09:38:28.993Z,42.01
2022-08-22T09:41:13.867Z,41.13
2022-08-22T09:43:59.162Z,40.71
2022-08-22T09:46:43.868Z,42.19
2022-08-22T09:49:28.562Z,42.51
2022-08-22T09:52:15.184Z,40.25
2022-08-22T09:55:18.315Z,40.67
2022-08-22T09:58:18.795Z,41.71
2022-08-22T10:01:04.036Z,42.65
2022-08-22T10:03:49.223Z,41.18
2022-08-22T10:06:35.608Z,41.25
2022-08-22T10:09:21.657Z,42.40
2022-08-22T10:12:12.428Z,40.83
2022-08-22T10:14:58.409Z,41.22
2022-08-22T10:17:43.678Z,40.36
2022-08-22T10:20:28.357Z,40.32
2022-08-22T10:23:13.037Z,40.46
2022-08-22T10:25:59.713Z,39.98
2022-08-22T10:28:45.143Z,39.24
2022-08-22T10:31:30.447Z,39.06
2022-08-22T10:34:15.270Z,39.53
2022-08-22T10:36:59.958Z,41.00
2022-08-22T10:39:44.754Z,40.40
2022-08-22T10:42:35.320Z,39.78
2022-08-22T10:45:23.610Z,39.90
2022-08-22T10:48:09.786Z,40.05
2022-08-22T10:50:55.408Z,39.47
2022-08-22T10:53:41.071Z,39.20
2022-08-22T10:56:27.397Z,40.09
2022-08-22T10:59:12.859Z,39.96
2022-08-22T11:01:57.611Z,40.52
2022-08-22T11:04:43.729Z,39.35
2022-08-22T11:07:28.469Z,39.02
2022-08-22T11:10:13.373Z,38.10
2022-08-22T11:12:58.325Z,38.79
2022-08-22T11:15:43.887Z,37.92
2022-08-22T11:18:28.697Z,38.51
2022-08-22T11:21:15.389Z,38.85
2022-08-22T11:24:00.810Z,36.66
2022-08-22T11:26:47.411Z,38.29
2022-08-22T11:29:32.374Z,37.40
2022-08-22T11:32:17.703Z,37.54
2022-08-22T11:35:02.319Z,37.90
2022-08-22T11:37:47.747Z,37.10
2022-08-22T11:40:36.087Z,37.44
2022-08-22T11:43:20.790Z,36.68
2022-08-22T11:46:05.772Z,36.12
2022-08-22T11:48:51.422Z,35.45
2022-08-22T11:51:36.071Z,35.47
2022-08-22T11:54:22.258Z,35.92
2022-08-22T11:57:16.252Z,35.98
2022-08-22T12:00:01.160Z,34.94
2022-08-22T12:02:47.410Z,34.19
2022-08-22T12:05:32.261Z,33.70
2022-08-22T12:08:21.257Z,34.47
2022-08-22T12:11:06.414Z,33.54
2022-08-22T12:13:51.623Z,33.87
2022-08-22T12:16:49.988Z,32.61
2022-08-22T12:19:34.630Z,34.09
2022-08-22T12:22:19.450Z,31.77
2022-08-22T12:25:04.307Z,32.75
2022-08-22T12:27:50.967Z,32.87
2022-08-22T12:30:40.136Z,32.33
2022-08-22T12:33:24.764Z,33.15
2022-08-22T12:36:18.074Z,31.05
2022-08-22T12:39:03.714Z,31.41
2022-08-22T12:41:52.648Z,31.78
2022-08-22T12:44:37.345Z,30.58
2022-08-22T12:47:22.265Z,31.61
2022-08-22T12:50:07.594Z,32.49
2022-08-22T12:52:53.319Z,30.56
2022-08-22T12:55:38.021Z,30.91
2022-08-22T12:58:23.316Z,31.56
2022-08-22T13:01:08.294Z,32.33
2022-08-22T13:03:53.338Z,30.91
2022-08-22T13:06:40.217Z,32.32
2022-08-22T13:09:28.945Z,30.59
2022-08-22T13:12:15.522Z,31.51
2022-08-22T13:15:05.305Z,32.00
2022-08-22T13:17:50.035Z,29.23
2022-08-22T13:20:34.866Z,30.37
2022-08-22T13:23:19.606Z,29.89
2022-08-22T13:26:07.974Z,29.85
2022-08-22T13:29:09.067Z,30.12
2022-08-22T13:31:57.833Z,31.05
2022-08-22T13:34:43.660Z,28.66
2022-08-22T13:37:28.919Z,29.76
2022-08-22T13:40:13.858Z,28.92
2022-08-22T13:42:58.992Z,31.06
2022-08-22T13:45:44.245Z,27.82
2022-08-22T13:48:29.084Z,28.54
2022-08-22T13:51:13.863Z,29.46
2022-08-22T13:54:00.769Z,28.16
2022-08-22T13:56:47.515Z,28.64
2022-08-22T13:59:50.377Z,31.33
2022-08-22T14:02:36.252Z,28.08
2022-08-22T14:05:22.079Z,28.36
2022-08-22T14:08:13.036Z,27.81
2022-08-22T14:11:02.098Z,27.04
2022-08-22T14:13:51.411Z,27.58
2022-08-22T14:16:36.205Z,29.68
2022-08-22T14:19:20.967Z,27.10
2022-08-22T14:22:06.277Z,27.14
2022-08-22T14:24:55.667Z,27.39
2022-08-22T14:27:40.616Z,27.24
2022-08-22T14:30:27.030Z,27.14
2022-08-22T14:33:12.203Z,26.61
2022-08-22T14:35:56.982Z,26.81
2022-08-22T14:38:46.277Z,27.64
2022-08-22T14:41:55.612Z,27.55
2022-08-22T14:44:36.360Z,27.52
2022-08-22T14:47:54.449Z,28.60
2022-08-22T14:50:27.665Z,28.12
2022-08-22T14:53:12.789Z,28.71
2022-08-22T14:55:57.578Z,28.19
2022-08-22T14:58:42.249Z,28.30
2022-08-22T15:01:29.882Z,28.77
2022-08-22T15:04:19.583Z,29.17
2022-08-22T15:07:04.503Z,29.79
2022-08-22T15:09:49.195Z,29.96
2022-08-22T15:12:34.559Z,30.46
2022-08-22T15:15:19.459Z,30.84
2022-08-22T15:18:07.240Z,30.60
2022-08-22T15:20:55.599Z,31.38
2022-08-22T15:23:44.797Z,30.93
2022-08-22T15:26:30.763Z,31.17
2022-08-22T15:29:15.870Z,34.72
2022-08-22T15:32:00.701Z,35.34
2022-08-22T15:34:45.519Z,33.23
2022-08-22T15:37:32.403Z,31.45
2022-08-22T15:40:17.475Z,31.55
2022-08-22T15:43:02.643Z,33.05
2022-08-22T15:45:48.624Z,30.73
2022-08-22T15:48:33.815Z,30.91
2022-08-22T15:51:18.982Z,32.36
2022-08-22T15:54:16.133Z,30.82
2022-08-22T15:57:09.845Z,31.07
2022-08-22T15:59:54.789Z,34.86
2022-08-22T16:02:39.964Z,31.28
2022-08-22T16:05:24.770Z,31.49
2022-08-22T16:08:09.522Z,35.52
2022-08-22T16:10:54.690Z,32.66
2022-08-22T16:13:39.503Z,33.19
2022-08-22T16:16:24.358Z,33.40
2022-08-22T16:19:09.123Z,33.04
2022-08-22T16:21:53.937Z,36.80
2022-08-22T16:24:38.633Z,33.60
2022-08-22T16:27:23.355Z,34.35
2022-08-22T16:30:08.072Z,34.65
2022-08-22T16:32:52.947Z,33.31
2022-08-22T16:35:37.684Z,37.04
2022-08-22T16:38:22.823Z,36.47
2022-08-22T16:41:07.648Z,32.35
2022-08-22T16:43:52.706Z,32.67
2022-08-22T16:46:40.396Z,35.38
2022-08-22T16:49:25.193Z,36.20
2022-08-22T16:52:09.956Z,35.63
2022-08-22T16:54:54.805Z,32.76
2022-08-22T16:57:50.565Z,36.55
2022-08-22T17:00:44.559Z,35.85
2022-08-22T17:03:29.339Z,35.86
2022-08-22T17:06:14.202Z,32.74
2022-08-22T17:08:59.084Z,35.06
2022-08-22T17:11:43.760Z,32.34
2022-08-22T17:14:28.595Z,33.05
2022-08-22T17:17:13.271Z,33.62
2022-08-22T17:19:58.164Z,33.76
2022-08-22T17:22:43.388Z,34.77
2022-08-22T17:25:28.128Z,34.40
2022-08-22T17:28:12.807Z,34.01
2022-08-22T17:30:57.540Z,33.69
2022-08-22T17:33:42.336Z,37.32
2022-08-22T17:36:27.576Z,33.48
2022-08-22T17:39:12.402Z,32.76
2022-08-22T17:41:57.144Z,32.98
2022-08-22T17:44:41.874Z,33.73
2022-08-22T17:47:26.522Z,33.80
2022-08-22T17:50:11.277Z,34.99
2022-08-22T17:52:55.960Z,33.72
2022-08-22T17:55:40.556Z,33.14
2022-08-22T17:58:37.566Z,34.94
2022-08-22T18:01:28.949Z,34.88
2022-08-22T18:04:14.140Z,37.48
2022-08-22T18:06:58.911Z,33.38
2022-08-22T18:09:43.518Z,35.24
2022-08-22T18:12:31.161Z,35.37
2022-08-22T18:15:19.331Z,35.36
2022-08-22T18:18:04.044Z,33.53
2022-08-22T18:20:48.556Z,34.06
2022-08-22T18:23:35.690Z,34.46
2022-08-22T18:26:25.210Z,34.47
2022-08-22T18:29:12.067Z,34.02
2022-08-22T18:31:56.786Z,35.09
2022-08-22T18:34:41.599Z,35.66
2022-08-22T18:37:26.704Z,34.48
2022-08-22T18:40:13.210Z,33.90
2022-08-22T18:42:58.576Z,33.72
2022-08-22T18:45:44.359Z,34.60
2022-08-22T18:48:29.520Z,34.62
2022-08-22T18:51:14.271Z,37.37
2022-08-22T18:53:59.140Z,38.13
2022-08-22T18:56:43.811Z,38.94
2022-08-22T18:59:28.693Z,39.18
2022-08-22T19:02:13.385Z,38.69
2022-08-22T19:04:58.190Z,37.08
2022-08-22T19:07:43.039Z,38.05
2022-08-22T19:10:27.908Z,40.63
2022-08-22T19:13:12.783Z,37.11
2022-08-22T19:15:57.388Z,39.17
2022-08-22T19:18:42.353Z,38.40
2022-08-22T19:21:27.015Z,38.49
2022-08-22T19:24:11.811Z,39.83
2022-08-22T19:26:56.569Z,38.38
2022-08-22T19:29:41.416Z,41.33
2022-08-22T19:32:26.177Z,39.02
2022-08-22T19:35:11.003Z,38.63
2022-08-22T19:37:55.578Z,39.94
2022-08-22T19:40:40.398Z,39.40
2022-08-22T19:43:25.289Z,38.39
2022-08-22T19:46:12.111Z,39.62
2022-08-22T19:48:56.981Z,38.86
2022-08-22T19:51:41.631Z,40.08
2022-08-22T19:54:26.405Z,38.99
2022-08-22T19:57:11.124Z,44.30
2022-08-22T19:59:56.029Z,39.11
2022-08-22T20:02:40.825Z,40.35
2022-08-22T20:05:25.531Z,40.49
2022-08-22T20:08:10.386Z,41.40
2022-08-22T20:10:55.233Z,39.85
2022-08-22T20:13:40.122Z,44.21
2022-08-22T20:16:25.298Z,42.79
2022-08-22T20:19:10.350Z,40.09
2022-08-22T20:21:55.247Z,40.74
2022-08-22T20:24:40.487Z,44.77
2022-08-22T20:27:25.787Z,39.41
2022-08-22T20:30:10.545Z,40.72
2022-08-22T20:32:55.464Z,38.64
2022-08-22T20:35:40.585Z,40.83
2022-08-22T20:38:25.356Z,38.82
2022-08-22T20:41:11.083Z,38.68
2022-08-22T20:43:56.966Z,38.55
2022-08-22T20:46:43.776Z,39.18
2022-08-22T20:49:28.988Z,39.07
2022-08-22T20:52:13.783Z,40.08
2022-08-22T20:54:58.460Z,40.33
2022-08-22T20:57:43.187Z,40.79
2022-08-22T21:00:27.992Z,40.46
2022-08-22T21:03:12.704Z,40.49
2022-08-22T21:05:57.544Z,41.37
2022-08-22T21:08:42.241Z,41.60
2022-08-22T21:11:27.245Z,41.51
2022-08-22T21:14:11.907Z,44.37
2022-08-22T21:16:56.815Z,45.92
2022-08-22T21:19:41.474Z,42.25
2022-08-22T21:22:27.073Z,39.98
2022-08-22T21:25:11.849Z,40.80
2022-08-22T21:27:56.805Z,40.11
2022-08-22T21:30:41.997Z,40.45
2022-08-22T21:33:32.239Z,42.16
2022-08-22T21:36:17.058Z,42.86
2022-08-22T21:39:03.738Z,41.69
2022-08-22T21:41:48.836Z,43.70
2022-08-22T21:44:33.600Z,41.54
2022-08-22T21:47:19.127Z,41.98
2022-08-22T21:50:16.300Z,41.23
2022-08-22T21:53:01.093Z,41.28
2022-08-22T21:55:46.365Z,41.68
2022-08-22T21:58:34.977Z,41.72
2022-08-22T22:01:21.239Z,41.97
2022-08-22T22:04:09.859Z,43.06
2022-08-22T22:06:54.656Z,46.42
2022-08-22T22:09:39.331Z,42.98
2022-08-22T22:12:32.178Z,47.96
2022-08-22T22:15:17.165Z,44.96
2022-08-22T22:18:02.007Z,43.43
2022-08-22T22:20:46.743Z,41.90
2022-08-22T22:23:31.454Z,44.61
2022-08-22T22:26:16.177Z,41.79
2022-08-22T22:29:00.980Z,47.44
2022-08-22T22:31:45.696Z,41.55
2022-08-22T22:34:30.450Z,47.54
2022-08-22T22:37:15.077Z,43.98
2022-08-22T22:39:59.965Z,42.25
2022-08-22T22:42:52.274Z,43.03
2022-08-22T22:45:37.105Z,41.43
2022-08-22T22:48:24.306Z,41.05
2022-08-22T22:51:09.678Z,41.29
2022-08-22T22:53:54.393Z,43.02
2022-08-22T22:56:39.196Z,47.17
2022-08-22T22:59:24.809Z,41.68
2022-08-22T23:02:10.424Z,41.42
2022-08-22T23:04:55.182Z,42.80
2022-08-22T23:07:40.068Z,45.48
2022-08-22T23:10:24.908Z,46.88
2022-08-22T23:13:09.706Z,46.49
2022-08-22T23:15:54.718Z,40.60
2022-08-22T23:18:39.419Z,41.16
2022-08-22T23:21:24.357Z,42.25
2022-08-22T23:24:09.154Z,46.84
2022-08-22T23:26:53.995Z,44.94
2022-08-22T23:29:38.767Z,45.60
2022-08-22T23:32:23.440Z,45.65
2022-08-22T23:35:09.684Z,43.17
2022-08-22T23:37:54.463Z,47.07
2022-08-22T23:40:39.281Z,46.28
2022-08-22T23:43:24.046Z,42.76
2022-08-22T23:46:08.879Z,46.46
2022-08-22T23:48:53.601Z,42.39
2022-08-22T23:51:38.417Z,42.74
2022-08-22T23:54:23.128Z,44.83
2022-08-22T23:57:11.470Z,45.99
2022-08-22T23:59:58.568Z,45.42
